createdAt,value
2023-04-17T00:05:21.113Z,35.30
2023-04-17T00:11:24.442Z,30.10
2023-04-17T00:17:27.674Z,28.70
2023-04-17T00:20:29.478Z,37.20
2023-04-17T00:26:32.651Z,42.20
2023-04-17T00:32:35.994Z,36.50
2023-04-17T00:35:37.733Z,41.70
2023-04-17T00:41:41.435Z,39.20
2023-04-17T00:47:44.718Z,42.30
2023-04-17T00:53:48.231Z,36.60
2023-04-17T00:56:51.198Z,30.20
2023-04-17T00:59:53.098Z,29.40
2023-04-17T01:02:57.200Z,33.00
2023-04-17T01:05:59.363Z,37.90
2023-04-17T01:09:01.319Z,32.60
2023-04-17T01:12:24.295Z,36.30
2023-04-17T01:15:26.116Z,34.10
2023-04-17T01:18:27.893Z,34.10
2023-04-17T01:21:29.698Z,36.00
2023-04-17T01:27:32.871Z,39.10
2023-04-17T01:33:36.061Z,38.60
2023-04-17T01:36:37.700Z,36.40
2023-04-17T01:42:40.955Z,37.30
2023-04-17T01:48:44.183Z,38.00
2023-04-17T01:51:45.837Z,38.70
2023-04-17T01:57:49.916Z,38.30
2023-04-17T02:00:51.596Z,40.30
2023-04-17T02:06:55.166Z,36.80
2023-04-17T02:12:58.402Z,38.00
2023-04-17T02:19:01.605Z,43.30
2023-04-17T02:25:05.149Z,43.70
2023-04-17T02:28:06.800Z,47.70
2023-04-17T02:34:10.608Z,38.20
2023-04-17T02:40:14.932Z,40.70
2023-04-17T02:43:16.592Z,37.50
2023-04-17T02:49:19.926Z,45.20
2023-04-17T02:58:25.253Z,51.70
2023-04-17T03:01:27.024Z,58.00
2023-04-17T03:07:30.168Z,56.80
2023-04-17T03:10:31.888Z,59.80
2023-04-17T03:16:36.654Z,55.50
2023-04-17T03:19:38.368Z,55.40
2023-04-17T03:25:41.711Z,50.70
2023-04-17T03:31:45.046Z,48.40
2023-04-17T03:34:47.168Z,63.40
2023-04-17T03:37:48.824Z,60.00
2023-04-17T03:43:52.146Z,56.80
2023-04-17T03:52:57.535Z,48.30
2023-04-17T03:55:59.191Z,50.10
2023-04-17T04:02:02.673Z,50.20
2023-04-17T04:05:04.784Z,46.10
2023-04-17T04:08:06.695Z,50.90
2023-04-17T04:14:09.947Z,44.50
2023-04-17T04:20:13.172Z,49.40
2023-04-17T04:23:15.044Z,54.20
2023-04-17T04:29:18.317Z,52.50
2023-04-17T04:35:21.774Z,56.50
2023-04-17T04:38:23.542Z,55.40
2023-04-17T04:41:26.281Z,75.80
2023-04-17T04:44:27.925Z,71.40
2023-04-17T04:50:31.899Z,55.00
2023-04-17T04:53:33.575Z,66.90
2023-04-17T04:56:35.275Z,58.30
2023-04-17T05:02:41.049Z,50.30
2023-04-17T05:05:42.982Z,57.30
2023-04-17T05:08:44.587Z,53.60
2023-04-17T05:14:47.779Z,51.40
2023-04-17T05:20:51.687Z,50.90
2023-04-17T05:23:53.786Z,53.30
2023-04-17T05:26:55.425Z,62.20
2023-04-17T05:36:00.631Z,59.70
2023-04-17T05:39:02.317Z,62.00
2023-04-17T05:42:04.224Z,64.10
2023-04-17T05:45:06.310Z,53.70
2023-04-17T05:48:07.968Z,54.80
2023-04-17T05:51:09.623Z,59.30
2023-04-17T05:54:11.274Z,51.50
2023-04-17T05:57:12.867Z,45.90
2023-04-17T06:00:15.128Z,48.60
2023-04-17T06:03:18.265Z,47.20
2023-04-17T06:06:20.506Z,46.70
2023-04-17T06:09:23.520Z,44.80
2023-04-17T06:12:27.288Z,42.70
2023-04-17T06:15:29.092Z,38.90
2023-04-17T06:18:30.763Z,40.50
2023-04-17T06:21:32.592Z,37.90
2023-04-17T06:24:34.599Z,38.40
2023-04-17T06:27:37.267Z,36.30
2023-04-17T06:30:39.286Z,38.70
2023-04-17T06:33:40.988Z,35.70
2023-04-17T06:36:42.661Z,42.10
2023-04-17T06:39:44.300Z,37.90
2023-04-17T06:42:46.001Z,35.50
2023-04-17T06:45:48.483Z,39.20
2023-04-17T06:48:50.158Z,34.00
2023-04-17T06:51:51.756Z,37.80
2023-04-17T06:54:56.681Z,33.50
2023-04-17T06:57:58.245Z,32.60
2023-04-17T07:00:59.816Z,32.80
2023-04-17T07:04:01.618Z,42.10
2023-04-17T07:07:03.461Z,48.20
2023-04-17T07:10:06.437Z,38.40
2023-04-17T07:13:08.008Z,39.50
2023-04-17T07:16:09.688Z,45.60
2023-04-17T07:19:11.660Z,41.90
2023-04-17T07:22:13.612Z,36.60
2023-04-17T07:25:15.605Z,41.40
2023-04-17T07:28:18.032Z,39.80
2023-04-17T07:31:19.842Z,45.70
2023-04-17T07:34:21.641Z,44.90
2023-04-17T07:37:23.235Z,48.40
2023-04-17T07:40:25.181Z,50.40
2023-04-17T07:43:27.640Z,45.40
2023-04-17T07:46:29.344Z,43.60
2023-04-17T07:49:31.008Z,43.80
2023-04-17T07:52:32.720Z,41.50
2023-04-17T07:55:34.317Z,42.30
2023-04-17T07:58:36.052Z,41.20
2023-04-17T08:01:37.788Z,45.00
2023-04-17T08:04:39.778Z,42.90
2023-04-17T08:07:41.665Z,46.80
2023-04-17T08:10:43.353Z,43.50
2023-04-17T08:13:45.013Z,41.00
2023-04-17T08:16:47.493Z,43.70
2023-04-17T08:19:49.513Z,43.00
2023-04-17T08:22:51.130Z,45.50
2023-04-17T08:25:52.747Z,44.70
2023-04-17T08:28:54.461Z,39.90
2023-04-17T08:32:12.792Z,40.20
2023-04-17T08:35:16.757Z,41.80
2023-04-17T08:38:18.408Z,42.30
2023-04-17T08:41:22.073Z,44.00
2023-04-17T08:44:23.732Z,44.40
2023-04-17T08:47:25.482Z,41.80
2023-04-17T08:50:27.320Z,39.60
2023-04-17T08:53:29.052Z,42.10
2023-04-17T08:56:30.668Z,44.90
2023-04-17T08:59:32.743Z,36.70
2023-04-17T09:02:51.927Z,39.30
2023-04-17T09:05:57.224Z,38.90
2023-04-17T09:09:02.259Z,33.80
2023-04-17T09:12:08.885Z,32.80
2023-04-17T09:15:17.506Z,35.10
2023-04-17T09:18:28.023Z,33.50
2023-04-17T09:21:29.812Z,33.00
2023-04-17T09:24:35.416Z,33.20
2023-04-17T09:27:37.212Z,34.30
2023-04-17T09:30:40.440Z,33.90
2023-04-17T09:34:03.782Z,35.20
2023-04-17T09:37:05.475Z,37.90
2023-04-17T09:40:07.738Z,37.10
2023-04-17T09:43:10.292Z,35.00
2023-04-17T09:46:12.815Z,38.50
2023-04-17T09:49:38.648Z,35.70
2023-04-17T09:52:40.724Z,32.60
2023-04-17T09:55:42.634Z,34.80
2023-04-17T09:58:44.618Z,36.10
2023-04-17T10:01:46.304Z,33.50
2023-04-17T10:04:48.128Z,34.40
2023-04-17T10:07:49.942Z,36.40
2023-04-17T10:10:51.999Z,33.40
2023-04-17T10:14:04.495Z,36.20
2023-04-17T10:17:26.674Z,35.50
2023-04-17T10:20:28.625Z,35.00
2023-04-17T10:23:32.352Z,33.80
2023-04-17T10:26:34.616Z,37.10
2023-04-17T10:29:55.756Z,32.80
2023-04-17T10:36:40.444Z,37.80
2023-04-17T10:39:50.224Z,32.90
2023-04-17T10:43:10.456Z,37.40
2023-04-17T10:46:13.279Z,35.10
2023-04-17T10:49:15.266Z,34.70
2023-04-17T10:52:32.231Z,34.10
2023-04-17T10:55:34.005Z,34.10
2023-04-17T10:58:39.878Z,33.60
2023-04-17T11:01:47.736Z,36.60
2023-04-17T11:05:06.550Z,34.10
2023-04-17T11:08:09.940Z,34.20
2023-04-17T11:11:11.609Z,34.00
2023-04-17T11:14:15.270Z,30.20
2023-04-17T11:17:17.217Z,29.30
2023-04-17T11:20:23.798Z,29.50
2023-04-17T11:23:30.296Z,28.10
2023-04-17T11:26:31.904Z,30.00
2023-04-17T11:29:33.664Z,31.50
2023-04-17T11:32:38.308Z,31.50
2023-04-17T11:35:41.811Z,32.00
2023-04-17T11:38:47.723Z,30.30
2023-04-17T11:41:51.415Z,30.40
2023-04-17T11:44:53.105Z,34.00
2023-04-17T11:47:54.865Z,30.10
2023-04-17T11:51:04.007Z,30.70
2023-04-17T11:54:05.844Z,32.30
2023-04-17T11:57:12.801Z,34.40
2023-04-17T12:00:14.951Z,34.30
2023-04-17T12:03:36.212Z,32.20
2023-04-17T12:09:40.146Z,33.10
2023-04-17T12:12:41.753Z,35.80
2023-04-17T12:15:43.675Z,37.40
2023-04-17T12:18:45.336Z,39.10
2023-04-17T12:21:47.041Z,37.90
2023-04-17T12:24:48.793Z,40.10
2023-04-17T12:27:50.599Z,42.10
2023-04-17T12:30:52.338Z,40.60
2023-04-17T12:33:53.940Z,39.40
2023-04-17T12:36:55.693Z,36.50
2023-04-17T12:39:57.520Z,40.50
2023-04-17T12:42:59.140Z,40.40
2023-04-17T12:46:00.865Z,37.10
2023-04-17T12:49:02.696Z,38.40
2023-04-17T12:52:04.407Z,44.80
2023-04-17T12:55:06.558Z,41.30
2023-04-17T12:58:08.860Z,36.10
2023-04-17T13:01:10.652Z,38.80
2023-04-17T13:04:12.729Z,34.20
2023-04-17T13:07:14.807Z,32.90
2023-04-17T13:10:16.562Z,36.70
2023-04-17T13:13:18.221Z,34.70
2023-04-17T13:16:19.856Z,31.90
2023-04-17T13:19:21.461Z,29.20
2023-04-17T13:22:23.160Z,30.30
2023-04-17T13:25:25.018Z,34.90
2023-04-17T13:28:26.707Z,28.90
2023-04-17T13:31:28.548Z,30.60
2023-04-17T13:34:30.219Z,30.20
2023-04-17T13:37:31.882Z,30.90
2023-04-17T13:40:33.645Z,30.50
2023-04-17T13:43:35.245Z,28.60
2023-04-17T13:46:37.128Z,31.40
2023-04-17T13:49:38.881Z,34.00
2023-04-17T13:52:40.621Z,27.30
2023-04-17T13:55:42.317Z,37.30
2023-04-17T13:58:43.962Z,26.30
2023-04-17T14:01:45.718Z,30.80
2023-04-17T14:04:47.519Z,29.60
2023-04-17T14:07:49.277Z,27.60
2023-04-17T14:10:50.893Z,26.40
2023-04-17T14:13:52.457Z,23.60
2023-04-17T14:16:54.158Z,24.90
2023-04-17T14:19:55.816Z,25.60
2023-04-17T14:22:57.527Z,24.00
2023-04-17T14:25:59.141Z,20.40
2023-04-17T14:29:00.783Z,19.50
2023-04-17T14:32:02.616Z,21.30
2023-04-17T14:35:05.130Z,18.60
2023-04-17T14:38:07.392Z,19.10
2023-04-17T14:41:09.088Z,22.00
2023-04-17T14:44:10.896Z,22.60
2023-04-17T14:47:12.688Z,22.20
2023-04-17T14:50:14.509Z,20.80
2023-04-17T14:53:16.291Z,22.10
2023-04-17T14:56:18.262Z,23.40
2023-04-17T14:59:20.358Z,21.70
2023-04-17T15:02:22.209Z,20.50
2023-04-17T15:05:24.164Z,20.20
2023-04-17T15:08:25.820Z,20.50
2023-04-17T15:11:27.573Z,20.00
2023-04-17T15:14:29.225Z,21.10
2023-04-17T15:17:30.956Z,19.50
2023-04-17T15:20:33.695Z,31.60
2023-04-17T15:23:37.717Z,20.20
2023-04-17T15:26:39.394Z,20.60
2023-04-17T15:29:41.587Z,18.00
2023-04-17T15:32:44.058Z,21.60
2023-04-17T15:35:45.873Z,30.10
2023-04-17T15:38:47.535Z,25.70
2023-04-17T15:41:49.278Z,27.60
2023-04-17T15:44:51.015Z,22.20
2023-04-17T15:47:53.166Z,20.60
2023-04-17T15:50:55.378Z,21.40
2023-04-17T15:53:57.127Z,15.60
2023-04-17T15:56:58.988Z,18.10
2023-04-17T16:00:00.622Z,18.60
2023-04-17T16:03:02.473Z,16.30
2023-04-17T16:06:04.820Z,18.60
2023-04-17T16:09:06.541Z,17.00
2023-04-17T16:12:10.041Z,18.40
2023-04-17T16:15:12.815Z,24.90
2023-04-17T16:18:14.479Z,21.80
2023-04-17T16:21:16.090Z,18.20
2023-04-17T16:24:17.759Z,16.20
2023-04-17T16:27:19.576Z,16.60
2023-04-17T16:30:21.846Z,13.60
2023-04-17T16:33:23.482Z,20.50
2023-04-17T16:36:25.206Z,19.60
2023-04-17T16:39:26.953Z,17.90
2023-04-17T16:42:28.728Z,16.80
2023-04-17T16:45:30.499Z,20.00
2023-04-17T16:48:32.372Z,18.80
2023-04-17T16:51:34.240Z,45.10
2023-04-17T16:54:35.963Z,16.80
2023-04-17T16:57:37.702Z,16.30
2023-04-17T17:00:39.457Z,18.00
2023-04-17T17:03:41.563Z,16.70
2023-04-17T17:06:43.443Z,17.30
2023-04-17T17:09:45.250Z,18.20
2023-04-17T17:12:46.902Z,18.70
2023-04-17T17:15:48.949Z,19.80
2023-04-17T17:18:50.833Z,18.10
2023-04-17T17:21:52.670Z,17.50
2023-04-17T17:24:54.581Z,18.80
2023-04-17T17:27:56.325Z,18.70
2023-04-17T17:31:08.313Z,18.20
2023-04-17T17:34:25.568Z,18.30
2023-04-17T17:37:28.808Z,16.00
2023-04-17T17:40:30.450Z,17.60
2023-04-17T17:43:32.097Z,18.20
2023-04-17T17:46:33.770Z,19.90
2023-04-17T17:49:35.466Z,19.70
2023-04-17T17:52:37.158Z,20.10
2023-04-17T17:55:39.577Z,20.40
2023-04-17T17:58:41.187Z,21.60
2023-04-17T18:01:43.026Z,20.10
2023-04-17T18:04:45.065Z,22.30
2023-04-17T18:07:47.259Z,23.50
2023-04-17T18:10:48.885Z,20.50
2023-04-17T18:13:51.269Z,22.30
2023-04-17T18:16:52.965Z,20.60
2023-04-17T18:19:54.732Z,27.70
2023-04-17T18:22:56.401Z,22.30
2023-04-17T18:26:02.603Z,22.30
2023-04-17T18:29:04.558Z,22.30
2023-04-17T18:32:06.324Z,21.10
2023-04-17T18:35:08.590Z,20.60
2023-04-17T18:38:10.357Z,22.10
2023-04-17T18:41:12.063Z,25.20
2023-04-17T18:44:13.988Z,23.60
2023-04-17T18:47:15.714Z,25.10
2023-04-17T18:50:17.672Z,25.20
2023-04-17T18:53:19.536Z,23.90
2023-04-17T18:56:21.466Z,24.10
2023-04-17T18:59:23.246Z,26.90
2023-04-17T19:02:25.131Z,23.60
2023-04-17T19:05:26.923Z,26.70
2023-04-17T19:08:28.863Z,24.90
2023-04-17T19:11:31.262Z,27.60
2023-04-17T19:14:33.026Z,29.30
2023-04-17T19:17:35.068Z,25.40
2023-04-17T19:20:37.208Z,24.90
2023-04-17T19:23:38.834Z,24.50
2023-04-17T19:26:40.687Z,26.60
2023-04-17T19:29:42.948Z,27.10
2023-04-17T19:32:44.724Z,31.50
2023-04-17T19:35:46.558Z,25.70
2023-04-17T19:38:48.639Z,26.50
2023-04-17T19:41:50.641Z,26.00
2023-04-17T19:44:52.884Z,28.10
2023-04-17T19:47:54.894Z,31.20
2023-04-17T19:50:56.822Z,27.00
2023-04-17T19:53:58.880Z,27.90
2023-04-17T19:57:00.770Z,26.80
2023-04-17T20:00:02.681Z,29.90
2023-04-17T20:03:04.457Z,26.90
2023-04-17T20:06:06.383Z,30.60
2023-04-17T20:09:08.395Z,26.60
2023-04-17T20:12:10.142Z,30.20
2023-04-17T20:15:11.896Z,27.80
2023-04-17T20:18:13.647Z,26.60
2023-04-17T20:21:15.288Z,27.50
2023-04-17T20:24:16.986Z,30.60
2023-04-17T20:27:18.679Z,26.50
2023-04-17T20:30:21.260Z,28.40
2023-04-17T20:33:23.084Z,29.00
2023-04-17T20:36:24.838Z,32.20
2023-04-17T20:39:26.502Z,31.10
2023-04-17T20:42:28.105Z,29.70
2023-04-17T20:45:29.822Z,30.40
2023-04-17T20:48:31.552Z,28.30
2023-04-17T20:51:33.191Z,28.60
2023-04-17T20:54:34.960Z,28.20
2023-04-17T20:57:36.554Z,31.50
2023-04-17T21:00:44.334Z,35.50
2023-04-17T21:03:49.369Z,33.20
2023-04-17T21:06:51.245Z,34.70
2023-04-17T21:09:53.008Z,29.30
2023-04-17T21:12:54.813Z,31.80
2023-04-17T21:15:56.481Z,27.10
2023-04-17T21:18:58.160Z,26.20
2023-04-17T21:21:59.766Z,28.00
2023-04-17T21:25:01.497Z,27.40
2023-04-17T21:28:03.364Z,28.50
2023-04-17T21:31:05.047Z,25.80
2023-04-17T21:34:07.172Z,28.00
2023-04-17T21:37:08.857Z,28.10
2023-04-17T21:40:10.903Z,27.20
2023-04-17T21:43:15.516Z,29.40
2023-04-17T21:46:17.315Z,29.10
2023-04-17T21:49:20.216Z,27.40
2023-04-17T21:52:21.785Z,27.30
2023-04-17T21:55:23.489Z,28.20
2023-04-17T21:58:25.377Z,29.00
2023-04-17T22:01:27.296Z,26.80
2023-04-17T22:04:29.108Z,26.50
2023-04-17T22:07:34.055Z,29.30
2023-04-17T22:10:37.866Z,26.90
2023-04-17T22:13:39.546Z,29.50
2023-04-17T22:16:41.185Z,28.70
2023-04-17T22:19:42.795Z,30.60
2023-04-17T22:23:22.395Z,28.70
2023-04-17T22:27:01.944Z,28.80
2023-04-17T22:30:41.142Z,30.80
2023-04-17T22:34:20.750Z,30.90
2023-04-17T22:38:00.211Z,30.50
2023-04-17T22:41:39.713Z,33.40
2023-04-17T22:45:19.175Z,33.10
2023-04-17T22:48:58.633Z,35.00
2023-04-17T22:52:38.297Z,33.20
2023-04-17T22:56:17.673Z,35.60
2023-04-17T22:59:57.647Z,37.10
2023-04-17T23:03:37.216Z,36.80
2023-04-17T23:07:17.070Z,33.50
2023-04-17T23:10:19.979Z,33.40
2023-04-17T23:13:21.630Z,34.30
2023-04-17T23:16:23.234Z,33.60
2023-04-17T23:19:24.899Z,32.80
2023-04-17T23:22:26.687Z,33.90
2023-04-17T23:25:28.361Z,31.40
2023-04-17T23:28:30.250Z,33.40
2023-04-17T23:31:31.962Z,33.40
2023-04-17T23:34:33.842Z,34.60
2023-04-17T23:37:35.739Z,35.80
2023-04-17T23:40:37.461Z,32.60
2023-04-17T23:43:39.157Z,31.50
2023-04-17T23:46:40.922Z,30.90
2023-04-17T23:49:42.646Z,30.70
2023-04-17T23:52:44.522Z,33.00
2023-04-17T23:55:46.253Z,33.00
2023-04-17T23:58:48.076Z,32.80
